Time;durP1;ratioP1;P1;durP2;ratioP2;P2;SDS_P1;SDS_P2;PMS_P1;PMS_P2;Temp;Humidity;BMP_temperature;BMP_pressure;BME280_temperature;BME280_humidity;BME280_pressure;Samples;Min_cycle;Max_cycle;Signal;HPM_P1;HPM_P2
2024/01/01 00:00:50;;;;;;;29.33;6.68;;;8.30;99.90;;;;;;4206176;28;20113;-63
2024/01/01 00:02:55;;;;;;;30.25;6.22;;;8.20;99.90;;;;;;4214098;28;20193;-64
2024/01/01 00:04:58;;;;;;;33.65;6.53;;;8.30;99.90;;;;;;4213914;28;20119;-63
2024/01/01 00:07:00;;;;;;;27.33;5.65;;;8.20;99.90;;;;;;4213867;28;20048;-64
2024/01/01 00:09:02;;;;;;;30.55;7.07;;;8.20;99.90;;;;;;4213525;28;20040;-63
2024/01/01 00:11:04;;;;;;;28.27;6.50;;;8.20;99.90;;;;;;4213623;28;20123;-64
2024/01/01 00:13:07;;;;;;;30.02;7.00;;;8.20;99.90;;;;;;4213409;28;20074;-64
2024/01/01 00:15:09;;;;;;;31.90;7.13;;;8.20;99.90;;;;;;4197181;28;20049;-63
2024/01/01 00:17:13;;;;;;;26.02;6.38;;;8.20;99.90;;;;;;4196869;28;20072;-66
2024/01/01 00:19:17;;;;;;;34.28;6.13;;;8.10;99.90;;;;;;4197002;28;20045;-64
2024/01/01 00:21:19;;;;;;;30.60;6.50;;;8.10;99.90;;;;;;4197596;28;20052;-63
2024/01/01 00:23:21;;;;;;;36.65;7.32;;;8.10;99.90;;;;;;4201001;28;20102;-66
2024/01/01 00:25:23;;;;;;;29.40;7.05;;;8.10;99.90;;;;;;4200957;28;20412;-64
2024/01/01 00:27:26;;;;;;;31.33;5.90;;;8.10;99.90;;;;;;4200272;28;20123;-63
2024/01/01 00:29:28;;;;;;;36.15;7.65;;;8.10;99.90;;;;;;4199177;28;20094;-63
2024/01/01 00:31:39;;;;;;;29.52;5.65;;;8.00;99.90;;;;;;4199598;28;20052;-63
2024/01/01 00:33:44;;;;;;;29.95;6.78;;;8.00;99.90;;;;;;4199541;28;20045;-62
2024/01/01 00:35:49;;;;;;;29.75;6.18;;;8.00;99.90;;;;;;4199390;28;20048;-64
2024/01/01 00:37:52;;;;;;;37.17;6.15;;;8.00;99.90;;;;;;4182436;28;20112;-64
2024/01/01 00:39:55;;;;;;;28.23;5.45;;;8.00;99.90;;;;;;4199595;28;20045;-63
2024/01/01 00:41:57;;;;;;;32.90;6.32;;;8.00;99.90;;;;;;4199519;28;20059;-68
2024/01/01 00:43:59;;;;;;;39.95;6.90;;;8.00;99.90;;;;;;4199937;28;20479;-69
2024/01/01 00:46:02;;;;;;;39.25;6.22;;;8.00;99.90;;;;;;4200004;28;20064;-66
2024/01/01 00:48:05;;;;;;;32.05;5.95;;;8.00;99.90;;;;;;4199382;28;20450;-64
2024/01/01 00:50:08;;;;;;;34.17;5.90;;;8.00;99.90;;;;;;4181891;28;20044;-64
2024/01/01 00:52:15;;;;;;;26.60;6.40;;;8.00;99.90;;;;;;4199358;28;20055;-64
2024/01/01 00:54:18;;;;;;;31.92;7.05;;;7.90;99.90;;;;;;4181805;28;20493;-63
2024/01/01 00:56:21;;;;;;;38.50;6.25;;;7.90;99.90;;;;;;4199101;28;20044;-63
2024/01/01 00:58:23;;;;;;;33.72;6.32;;;7.90;99.90;;;;;;4199173;28;20045;-64
2024/01/01 01:00:25;;;;;;;33.00;6.70;;;7.90;99.90;;;;;;4205426;28;20115;-63
2024/01/01 01:02:27;;;;;;;31.02;6.20;;;7.90;99.90;;;;;;4216168;28;20052;-64
2024/01/01 01:04:29;;;;;;;37.25;7.28;;;7.90;99.90;;;;;;4215775;28;20047;-63
2024/01/01 01:06:31;;;;;;;29.25;6.75;;;7.90;99.90;;;;;;4215824;28;20048;-66
2024/01/01 01:08:35;;;;;;;31.38;6.82;;;7.90;99.90;;;;;;4198030;28;20050;-63
2024/01/01 01:10:37;;;;;;;34.45;6.53;;;7.90;99.90;;;;;;4215853;28;20059;-63
2024/01/01 01:12:39;;;;;;;32.60;6.25;;;7.90;99.90;;;;;;4215253;28;20044;-64
2024/01/01 01:14:41;;;;;;;26.90;5.65;;;7.90;99.90;;;;;;4203669;28;20053;-63
2024/01/01 01:16:43;;;;;;;35.17;6.47;;;7.90;99.90;;;;;;4199023;28;20080;-63
2024/01/01 01:18:46;;;;;;;28.20;6.32;;;7.80;99.90;;;;;;4199231;28;20048;-63
2024/01/01 01:20:48;;;;;;;34.55;6.55;;;7.80;99.90;;;;;;4199083;28;20125;-64
2024/01/01 01:22:50;;;;;;;37.50;6.65;;;7.90;99.90;;;;;;4198998;28;20131;-63
2024/01/01 01:24:54;;;;;;;35.88;7.68;;;7.90;99.90;;;;;;4198597;28;20128;-64
2024/01/01 01:26:57;;;;;;;36.47;7.28;;;7.90;99.90;;;;;;4198901;28;20052;-64
2024/01/01 01:28:59;;;;;;;37.45;6.78;;;7.90;99.90;;;;;;4198966;28;20052;-64
2024/01/01 01:31:02;;;;;;;36.78;7.03;;;7.90;99.90;;;;;;4198850;28;20052;-63
2024/01/01 01:33:04;;;;;;;43.75;7.47;;;7.90;99.90;;;;;;4198799;28;20045;-63
2024/01/01 01:35:07;;;;;;;43.28;7.47;;;7.90;99.90;;;;;;4198740;28;20051;-66
2024/01/01 01:37:10;;;;;;;39.60;6.97;;;7.90;99.90;;;;;;4198913;28;20040;-64
2024/01/01 01:39:12;;;;;;;35.53;8.00;;;7.90;99.90;;;;;;4198777;28;20049;-64
2024/01/01 01:41:15;;;;;;;32.75;6.75;;;7.90;99.90;;;;;;4198741;28;20049;-62
2024/01/01 01:43:23;;;;;;;41.15;8.27;;;7.90;99.90;;;;;;4199801;28;20241;-64
2024/01/01 01:45:26;;;;;;;32.45;6.57;;;7.90;99.90;;;;;;4199281;28;20045;-62
2024/01/01 01:47:29;;;;;;;34.03;6.93;;;7.90;99.90;;;;;;4199533;28;20057;-66
2024/01/01 01:49:31;;;;;;;32.85;7.43;;;7.90;99.90;;;;;;4199615;28;20049;-62
2024/01/01 01:51:34;;;;;;;29.35;6.25;;;7.90;99.90;;;;;;4199044;28;20445;-63
2024/01/01 01:53:36;;;;;;;40.65;7.63;;;7.90;99.90;;;;;;4198767;28;20393;-64
2024/01/01 01:55:43;;;;;;;32.55;7.03;;;7.90;99.90;;;;;;4198662;28;20051;-64
2024/01/01 01:57:47;;;;;;;43.37;7.93;;;7.90;99.90;;;;;;4199057;28;20055;-63
2024/01/01 01:59:49;;;;;;;31.02;6.82;;;7.90;99.90;;;;;;4200197;28;20536;-65
2024/01/01 02:01:51;;;;;;;36.00;7.82;;;7.90;99.90;;;;;;4215619;28;20084;-64
2024/01/01 02:03:57;;;;;;;36.67;7.28;;;7.90;99.90;;;;;;4215282;28;20047;-63
2024/01/01 02:05:59;;;;;;;30.88;6.68;;;7.90;99.90;;;;;;4215492;28;20054;-65
2024/01/01 02:08:02;;;;;;;38.80;7.43;;;7.90;99.90;;;;;;4215352;28;20044;-63
2024/01/01 02:10:06;;;;;;;36.95;6.82;;;7.90;99.90;;;;;;4215027;28;20051;-65
2024/01/01 02:12:11;;;;;;;33.60;6.85;;;7.90;99.90;;;;;;4215158;28;20067;-64
2024/01/01 02:14:16;;;;;;;34.92;7.10;;;7.90;99.90;;;;;;4215249;28;20066;-64
2024/01/01 02:16:20;;;;;;;33.80;6.55;;;7.90;99.90;;;;;;4197081;28;20435;-64
2024/01/01 02:18:23;;;;;;;30.90;5.78;;;7.90;99.90;;;;;;4215100;28;20380;-66
2024/01/01 02:20:25;;;;;;;27.48;6.25;;;7.80;99.90;;;;;;4215310;28;20044;-65
2024/01/01 02:22:37;;;;;;;33.83;7.07;;;7.90;99.90;;;;;;4214603;28;20036;-64
2024/01/01 02:24:41;;;;;;;34.08;6.20;;;7.90;99.90;;;;;;4215825;28;20252;-64
2024/01/01 02:26:43;;;;;;;40.33;7.57;;;7.80;99.90;;;;;;4215941;28;20522;-66
2024/01/01 02:28:45;;;;;;;30.58;6.82;;;7.80;99.90;;;;;;4215759;28;20044;-63
2024/01/01 02:30:48;;;;;;;35.63;7.22;;;7.80;99.90;;;;;;4215526;28;20056;-62
2024/01/01 02:32:50;;;;;;;28.50;6.45;;;7.80;99.90;;;;;;4215269;28;20048;-66
2024/01/01 02:34:52;;;;;;;40.25;6.20;;;7.80;99.90;;;;;;4215129;28;20086;-65
2024/01/01 02:36:55;;;;;;;32.60;6.38;;;7.80;99.90;;;;;;4214493;28;20136;-63
2024/01/01 02:38:57;;;;;;;30.33;6.20;;;7.80;99.90;;;;;;4214417;28;20428;-63
2024/01/01 02:41:00;;;;;;;27.25;6.75;;;7.80;99.90;;;;;;4214483;28;20040;-63
2024/01/01 02:43:04;;;;;;;32.45;5.80;;;7.80;99.90;;;;;;4214058;28;20048;-64
2024/01/01 02:45:07;;;;;;;30.08;6.45;;;7.80;99.90;;;;;;4213734;28;20121;-64
2024/01/01 02:47:09;;;;;;;31.23;7.78;;;7.80;99.90;;;;;;4213727;28;20044;-62
2024/01/01 02:49:11;;;;;;;35.60;6.85;;;7.70;99.90;;;;;;4214100;28;20148;-63
2024/01/01 02:51:14;;;;;;;28.77;7.47;;;7.70;99.90;;;;;;4214289;28;20509;-62
2024/01/01 02:53:16;;;;;;;25.42;5.85;;;7.80;99.90;;;;;;4213908;28;20044;-61
2024/01/01 02:55:24;;;;;;;30.10;5.93;;;7.80;99.90;;;;;;4214275;28;20469;-63
2024/01/01 02:57:28;;;;;;;34.70;6.03;;;7.80;99.90;;;;;;4195929;28;20116;-65
2024/01/01 02:59:30;;;;;;;34.35;6.32;;;7.80;99.90;;;;;;4195723;28;20084;-64
2024/01/01 03:01:34;;;;;;;26.13;5.78;;;7.80;99.90;;;;;;4213730;28;20131;-64
2024/01/01 03:03:36;;;;;;;33.20;6.68;;;7.80;99.90;;;;;;4214947;28;20391;-63
2024/01/01 03:05:39;;;;;;;30.52;6.20;;;7.80;99.90;;;;;;4214394;28;20051;-64
2024/01/01 03:07:41;;;;;;;35.88;6.38;;;7.80;99.90;;;;;;4213903;28;20040;-68
2024/01/01 03:09:44;;;;;;;35.72;6.22;;;7.80;99.90;;;;;;4214716;28;20040;-64
2024/01/01 03:11:47;;;;;;;32.67;6.22;;;7.80;99.90;;;;;;4214471;28;20051;-62
2024/01/01 03:13:51;;;;;;;30.75;6.20;;;7.80;99.90;;;;;;4209311;28;20048;-63
2024/01/01 03:15:53;;;;;;;28.40;6.30;;;7.80;99.90;;;;;;4197325;28;20052;-62
2024/01/01 03:17:55;;;;;;;29.02;6.75;;;7.80;99.90;;;;;;4197660;28;20477;-62
2024/01/01 03:19:57;;;;;;;29.20;5.43;;;7.80;99.90;;;;;;4197578;28;20110;-63
2024/01/01 03:21:59;;;;;;;37.80;5.95;;;7.80;99.90;;;;;;4197203;28;20064;-62
2024/01/01 03:24:01;;;;;;;28.92;6.28;;;7.80;99.90;;;;;;4178772;28;20069;-62
2024/01/01 03:26:03;;;;;;;30.85;6.70;;;7.80;99.90;;;;;;4196980;28;20483;-63
2024/01/01 03:28:06;;;;;;;28.60;6.18;;;7.90;99.90;;;;;;4196676;28;20040;-62
2024/01/01 03:30:11;;;;;;;28.33;5.50;;;7.90;99.90;;;;;;4196929;28;20060;-64
2024/01/01 03:32:14;;;;;;;33.88;6.43;;;7.90;99.90;;;;;;4196679;28;20127;-63
2024/01/01 03:34:16;;;;;;;26.58;5.43;;;7.80;99.90;;;;;;4196938;28;20372;-64
2024/01/01 03:36:18;;;;;;;26.33;5.93;;;7.80;99.90;;;;;;4196939;28;20051;-66
2024/01/01 03:38:20;;;;;;;31.58;5.30;;;7.80;99.90;;;;;;4196413;28;20055;-63
2024/01/01 03:40:22;;;;;;;36.30;7.10;;;7.80;99.90;;;;;;4197202;28;20050;-62
2024/01/01 03:42:26;;;;;;;29.33;6.20;;;7.80;99.90;;;;;;4197109;28;20104;-62
2024/01/01 03:44:28;;;;;;;24.40;5.30;;;7.70;99.90;;;;;;4196915;28;20106;-63
2024/01/01 03:46:32;;;;;;;28.73;5.95;;;7.70;99.90;;;;;;4178979;28;20481;-66
2024/01/01 03:48:35;;;;;;;24.38;4.82;;;7.70;99.90;;;;;;4196915;28;20471;-63
2024/01/01 03:50:37;;;;;;;31.58;5.75;;;7.70;99.90;;;;;;4196862;28;20098;-64
2024/01/01 03:52:42;;;;;;;29.95;5.45;;;7.70;99.90;;;;;;4178949;28;20413;-64
2024/01/01 03:54:45;;;;;;;25.88;5.82;;;7.70;99.90;;;;;;4196957;28;20048;-63
2024/01/01 03:56:47;;;;;;;30.42;5.32;;;7.70;99.90;;;;;;4197247;28;20470;-63
2024/01/01 03:58:49;;;;;;;27.85;5.80;;;7.70;99.90;;;;;;4200060;28;20484;-63
2024/01/01 04:00:51;;;;;;;30.42;5.13;;;7.70;99.90;;;;;;4209585;28;20052;-64
2024/01/01 04:02:55;;;;;;;26.23;5.30;;;7.70;99.90;;;;;;4198609;28;20436;-64
2024/01/01 04:04:57;;;;;;;26.80;5.65;;;7.60;99.90;;;;;;4216566;28;20040;-63
2024/01/01 04:06:59;;;;;;;32.50;5.75;;;7.60;99.90;;;;;;4216159;28;20040;-63
2024/01/01 04:09:02;;;;;;;29.70;5.70;;;7.60;99.90;;;;;;4216638;28;20062;-63
2024/01/01 04:11:04;;;;;;;25.73;5.47;;;7.60;99.90;;;;;;4216969;28;20449;-63
2024/01/01 04:13:06;;;;;;;27.70;5.38;;;7.60;99.90;;;;;;4216571;28;20041;-63
2024/01/01 04:15:09;;;;;;;23.73;5.30;;;7.60;99.90;;;;;;4200581;28;20044;-63
2024/01/01 04:17:12;;;;;;;23.48;5.38;;;7.60;99.90;;;;;;4199983;28;20046;-63
2024/01/01 04:19:15;;;;;;;23.63;4.95;;;7.60;99.90;;;;;;4199854;28;20461;-64
2024/01/01 04:21:18;;;;;;;25.15;4.63;;;7.60;99.90;;;;;;4200133;28;20044;-65
2024/01/01 04:23:20;;;;;;;19.52;4.75;;;7.50;99.90;;;;;;4200771;28;20105;-64
2024/01/01 04:25:22;;;;;;;25.52;5.07;;;7.50;99.90;;;;;;4200062;28;20094;-64
2024/01/01 04:27:24;;;;;;;25.73;5.68;;;7.50;99.90;;;;;;4199674;28;20048;-64
2024/01/01 04:29:26;;;;;;;24.80;4.88;;;7.50;99.90;;;;;;4199768;28;20074;-64
2024/01/01 04:31:29;;;;;;;23.77;4.82;;;7.50;99.90;;;;;;4199727;28;20123;-64
2024/01/01 04:33:31;;;;;;;20.33;4.45;;;7.50;99.90;;;;;;4199529;28;20044;-64
2024/01/01 04:35:35;;;;;;;26.55;4.97;;;7.50;99.90;;;;;;4199936;28;20102;-66
2024/01/01 04:37:37;;;;;;;24.92;4.97;;;7.50;99.90;;;;;;4199407;28;20048;-64
2024/01/01 04:39:39;;;;;;;22.92;4.43;;;7.50;99.90;;;;;;4182173;28;20048;-64
2024/01/01 04:41:41;;;;;;;21.98;4.78;;;7.50;99.90;;;;;;4182119;28;20132;-64
2024/01/01 04:43:44;;;;;;;21.80;4.13;;;7.50;99.90;;;;;;4182086;28;20045;-63
2024/01/01 04:45:47;;;;;;;21.35;4.50;;;7.50;99.90;;;;;;4199819;28;20044;-63
2024/01/01 04:47:49;;;;;;;22.17;4.38;;;7.50;99.90;;;;;;4199906;28;20055;-64
2024/01/01 04:49:52;;;;;;;26.13;4.68;;;7.50;99.90;;;;;;4181861;28;20060;-64
2024/01/01 04:51:55;;;;;;;22.10;4.53;;;7.50;99.90;;;;;;4182505;28;20076;-64
2024/01/01 04:53:57;;;;;;;22.38;5.07;;;7.50;99.90;;;;;;4199874;28;20509;-64
2024/01/01 04:55:59;;;;;;;27.45;5.30;;;7.50;99.90;;;;;;4199438;28;20127;-64
2024/01/01 04:58:01;;;;;;;23.67;4.20;;;7.50;99.90;;;;;;4199214;28;20044;-64
2024/01/01 05:00:05;;;;;;;16.90;3.88;;;7.40;99.90;;;;;;4202362;28;20044;-63
2024/01/01 05:02:07;;;;;;;20.45;4.63;;;7.50;99.90;;;;;;4215865;28;20410;-64
2024/01/01 05:04:12;;;;;;;21.55;4.57;;;7.50;99.90;;;;;;4216702;28;20542;-67
2024/01/01 05:06:14;;;;;;;;;;;7.50;99.90;;;;;;4217022;28;20052;-64
2024/01/01 05:08:18;;;;;;;18.33;4.30;;;7.40;99.90;;;;;;4215318;28;19956;-64
2024/01/01 05:10:20;;;;;;;21.08;3.45;;;7.40;99.90;;;;;;4216862;28;20070;-63
2024/01/01 05:12:22;;;;;;;18.30;4.15;;;7.40;99.90;;;;;;4216415;28;20434;-63
2024/01/01 05:14:24;;;;;;;20.23;3.85;;;7.40;99.90;;;;;;4206461;28;20040;-64
2024/01/01 05:16:27;;;;;;;24.35;4.20;;;7.50;99.90;;;;;;4199340;28;20044;-63
2024/01/01 05:18:29;;;;;;;21.08;5.28;;;7.50;99.90;;;;;;4199051;28;20056;-63
2024/01/01 05:20:31;;;;;;;18.08;4.05;;;7.50;99.90;;;;;;4199366;28;20052;-64
2024/01/01 05:22:33;;;;;;;22.70;4.50;;;7.50;99.90;;;;;;4198901;28;20057;-65
2024/01/01 05:24:36;;;;;;;15.90;3.65;;;7.50;99.90;;;;;;4198693;28;20053;-64
2024/01/01 05:26:38;;;;;;;24.08;3.90;;;7.40;99.90;;;;;;4199015;28;20377;-63
2024/01/01 05:28:42;;;;;;;18.15;4.30;;;7.40;99.90;;;;;;4198604;28;20466;-64
2024/01/01 05:30:45;;;;;;;16.02;3.83;;;7.40;99.90;;;;;;4198884;28;20053;-65
2024/01/01 05:32:47;;;;;;;18.70;3.95;;;7.40;99.90;;;;;;4198347;28;20052;-64
2024/01/01 05:34:49;;;;;;;23.13;4.50;;;7.40;99.90;;;;;;4198780;28;20068;-63
2024/01/01 05:36:51;;;;;;;18.75;4.05;;;7.40;99.90;;;;;;4198545;28;20044;-64
2024/01/01 05:38:53;;;;;;;18.52;4.15;;;7.40;99.90;;;;;;4198596;28;20040;-63
2024/01/01 05:40:57;;;;;;;23.42;4.78;;;7.40;99.90;;;;;;4198646;28;20119;-64
2024/01/01 05:42:59;;;;;;;13.55;3.30;;;7.40;99.90;;;;;;4198475;28;20053;-63
2024/01/01 05:45:01;;;;;;;23.00;4.22;;;7.40;99.90;;;;;;4198682;28;20040;-65
2024/01/01 05:47:03;;;;;;;24.42;4.65;;;7.30;99.90;;;;;;4180945;28;20468;-64
2024/01/01 05:49:05;;;;;;;21.15;4.82;;;7.30;99.90;;;;;;4180386;28;20530;-64
2024/01/01 05:51:08;;;;;;;21.38;3.97;;;7.30;99.90;;;;;;4180922;28;20115;-64
2024/01/01 05:53:10;;;;;;;21.15;4.13;;;7.30;99.90;;;;;;4182439;28;20079;-67
2024/01/01 05:55:12;;;;;;;18.60;3.67;;;7.30;99.90;;;;;;4200583;28;20131;-65
2024/01/01 05:57:17;;;;;;;22.60;4.38;;;7.30;99.90;;;;;;4200678;28;20060;-64
2024/01/01 05:59:20;;;;;;;21.40;3.83;;;7.30;99.90;;;;;;4199455;28;20082;-64
2024/01/01 06:01:22;;;;;;;19.25;3.95;;;7.30;99.90;;;;;;4212859;28;20067;-64
2024/01/01 06:03:24;;;;;;;23.88;4.32;;;7.30;99.90;;;;;;4214868;28;20048;-64
2024/01/01 06:05:26;;;;;;;15.57;3.67;;;7.30;99.90;;;;;;4215290;28;20066;-64
2024/01/01 06:07:28;;;;;;;26.55;4.60;;;7.30;99.90;;;;;;4215219;28;20048;-64
2024/01/01 06:09:30;;;;;;;27.98;4.47;;;7.30;99.90;;;;;;4215279;28;20052;-65
2024/01/01 06:11:33;;;;;;;21.42;5.05;;;7.30;99.90;;;;;;4215254;28;20063;-65
2024/01/01 06:13:37;;;;;;;16.73;4.13;;;7.30;99.90;;;;;;4194047;28;20049;-64
2024/01/01 06:15:39;;;;;;;16.90;4.40;;;7.30;99.90;;;;;;4180804;28;20052;-63
2024/01/01 06:17:42;;;;;;;19.08;3.80;;;7.30;99.90;;;;;;4197867;28;20441;-69
2024/01/01 06:19:44;;;;;;;25.83;4.82;;;7.30;99.90;;;;;;4199426;28;20052;-64
2024/01/01 06:21:46;;;;;;;26.73;4.20;;;7.30;99.90;;;;;;4199977;28;20045;-64
2024/01/01 06:23:48;;;;;;;24.83;4.45;;;7.30;99.90;;;;;;4198500;28;20136;-64
2024/01/01 06:25:52;;;;;;;17.95;3.45;;;7.30;99.90;;;;;;4198248;28;20049;-63
2024/01/01 06:27:54;;;;;;;22.33;4.18;;;7.30;99.90;;;;;;4198070;28;20044;-65
2024/01/01 06:29:58;;;;;;;27.52;4.65;;;7.30;99.90;;;;;;4179767;28;20067;-66
2024/01/01 06:32:00;;;;;;;16.42;3.80;;;7.30;99.90;;;;;;4197538;28;20053;-63
2024/01/01 06:34:02;;;;;;;22.48;4.28;;;7.30;99.90;;;;;;4197835;28;20040;-63
2024/01/01 06:36:05;;;;;;;24.15;4.32;;;7.30;99.90;;;;;;4197595;28;20094;-64
2024/01/01 06:38:07;;;;;;;20.02;4.20;;;7.30;99.90;;;;;;4197666;28;20070;-62
2024/01/01 06:40:11;;;;;;;25.23;4.72;;;7.30;99.90;;;;;;4197629;28;20048;-62
2024/01/01 06:42:15;;;;;;;21.95;3.95;;;7.30;99.90;;;;;;4180378;28;20488;-64
2024/01/01 06:44:20;;;;;;;22.17;4.15;;;7.30;99.90;;;;;;4197921;28;20561;-64
2024/01/01 06:46:24;;;;;;;21.83;4.20;;;7.30;99.90;;;;;;4198027;28;20050;-64
2024/01/01 06:48:26;;;;;;;23.88;4.65;;;7.30;99.90;;;;;;4180305;28;20102;-63
2024/01/01 06:50:30;;;;;;;24.20;4.63;;;7.30;99.90;;;;;;4198355;28;20049;-64
2024/01/01 06:52:33;;;;;;;14.07;2.93;;;7.30;99.90;;;;;;4197743;28;20052;-64
2024/01/01 06:54:38;;;;;;;22.73;4.55;;;7.30;99.90;;;;;;4197545;28;20449;-63
2024/01/01 06:56:41;;;;;;;26.42;4.82;;;7.30;99.90;;;;;;4179980;28;20048;-64
2024/01/01 06:58:43;;;;;;;23.48;4.15;;;7.20;99.90;;;;;;4179911;28;20618;-64
2024/01/01 07:00:46;;;;;;;18.05;4.13;;;7.20;99.90;;;;;;4206186;28;20074;-63
2024/01/01 07:02:50;;;;;;;26.60;4.63;;;7.20;99.90;;;;;;4214192;28;20044;-63
2024/01/01 07:04:52;;;;;;;27.73;4.15;;;7.20;99.90;;;;;;4213921;28;20044;-62
2024/01/01 07:06:56;;;;;;;20.75;4.13;;;7.20;99.90;;;;;;4213758;28;20505;-63
2024/01/01 07:08:58;;;;;;;22.27;4.05;;;7.20;99.90;;;;;;4195932;28;20044;-64
2024/01/01 07:11:00;;;;;;;25.45;5.13;;;7.20;99.90;;;;;;4195820;28;20052;-63
2024/01/01 07:13:03;;;;;;;20.70;4.00;;;7.20;99.90;;;;;;4195806;28;20477;-63
2024/01/01 07:15:05;;;;;;;23.05;4.47;;;7.20;99.90;;;;;;4198334;28;20484;-64
2024/01/01 07:17:11;;;;;;;21.60;4.53;;;7.20;99.90;;;;;;4197153;28;20101;-65
2024/01/01 07:19:14;;;;;;;19.92;4.25;;;7.20;99.90;;;;;;4197934;28;20071;-64
2024/01/01 07:21:17;;;;;;;24.08;4.63;;;7.20;99.90;;;;;;4197085;28;20041;-63
2024/01/01 07:23:19;;;;;;;23.35;4.70;;;7.20;99.90;;;;;;4197063;28;20150;-63
2024/01/01 07:25:22;;;;;;;23.88;4.65;;;7.20;99.90;;;;;;4197008;28;20055;-63
2024/01/01 07:27:24;;;;;;;20.75;4.22;;;7.20;99.90;;;;;;4197473;28;20086;-65
2024/01/01 07:29:26;;;;;;;21.95;4.30;;;7.20;99.90;;;;;;4196582;28;20565;-63
2024/01/01 07:31:28;;;;;;;20.77;3.75;;;7.20;99.90;;;;;;4196575;28;20068;-63
2024/01/01 07:33:32;;;;;;;23.55;4.65;;;7.20;99.90;;;;;;4197565;28;20472;-64
2024/01/01 07:35:35;;;;;;;22.75;4.00;;;7.10;99.90;;;;;;4197661;28;20552;-65
2024/01/01 07:37:37;;;;;;;29.40;4.60;;;7.10;99.90;;;;;;4197102;28;20361;-65
2024/01/01 07:39:42;;;;;;;18.90;4.13;;;7.10;99.90;;;;;;4196857;28;20036;-63
2024/01/01 07:41:44;;;;;;;25.02;4.78;;;7.10;99.90;;;;;;4196852;28;20099;-64
2024/01/01 07:43:46;;;;;;;27.45;4.60;;;7.10;99.90;;;;;;4196525;28;20052;-63
2024/01/01 07:45:48;;;;;;;24.98;4.05;;;7.20;99.90;;;;;;4178855;28;20492;-64
2024/01/01 07:47:50;;;;;;;26.42;4.57;;;7.20;99.90;;;;;;4196998;28;20055;-64
2024/01/01 07:49:53;;;;;;;27.73;4.47;;;7.20;99.90;;;;;;4196281;28;20062;-63
2024/01/01 07:51:58;;;;;;;27.58;4.93;;;7.20;99.90;;;;;;4196764;28;20539;-63
2024/01/01 07:54:00;;;;;;;15.05;3.42;;;7.20;99.90;;;;;;4196878;28;20075;-63
2024/01/01 07:56:04;;;;;;;29.35;3.78;;;7.20;99.90;;;;;;4196778;28;20055;-63
2024/01/01 07:58:07;;;;;;;22.02;4.03;;;7.20;99.90;;;;;;4195761;28;20051;-63
2024/01/01 08:00:10;;;;;;;21.48;4.18;;;7.20;99.90;;;;;;4201052;28;20040;-62
2024/01/01 08:02:12;;;;;;;27.95;5.40;;;7.20;99.90;;;;;;4213597;28;20483;-63
2024/01/01 08:04:14;;;;;;;26.10;4.75;;;7.20;99.90;;;;;;4213843;28;20426;-62
2024/01/01 08:06:17;;;;;;;27.60;4.57;;;7.30;99.90;;;;;;4213994;28;20044;-64
2024/01/01 08:08:21;;;;;;;21.85;4.07;;;7.30;99.90;;;;;;4213537;28;20499;-61
2024/01/01 08:10:23;;;;;;;23.50;4.88;;;7.30;99.90;;;;;;4213798;28;20044;-63
2024/01/01 08:12:26;;;;;;;26.23;5.43;;;7.40;99.90;;;;;;4213188;28;20040;-61
2024/01/01 08:14:28;;;;;;;22.27;4.53;;;7.40;99.90;;;;;;4213881;28;20136;-64
2024/01/01 08:16:33;;;;;;;22.05;4.60;;;7.40;99.90;;;;;;4213236;28;20044;-61
2024/01/01 08:18:35;;;;;;;24.92;4.88;;;7.40;99.90;;;;;;4213529;28;20039;-62
2024/01/01 08:20:37;;;;;;;25.75;4.65;;;7.40;99.90;;;;;;4213162;28;20463;-63
2024/01/01 08:22:39;;;;;;;21.02;4.30;;;7.40;99.90;;;;;;4213024;28;20444;-64
2024/01/01 08:24:43;;;;;;;25.23;5.05;;;7.40;99.90;;;;;;4212736;28;20075;-63
2024/01/01 08:26:45;;;;;;;22.30;4.05;;;7.40;99.90;;;;;;4213359;28;20140;-64
2024/01/01 08:28:51;;;;;;;32.55;4.65;;;7.50;99.90;;;;;;4213852;28;20040;-65
2024/01/01 08:30:57;;;;;;;23.02;4.60;;;7.50;99.90;;;;;;4213948;28;20405;-64
2024/01/01 08:32:59;;;;;;;21.80;4.05;;;7.50;99.90;;;;;;4213599;28;20040;-64
2024/01/01 08:35:01;;;;;;;22.48;4.85;;;7.50;99.90;;;;;;4213510;28;20055;-64
2024/01/01 08:37:04;;;;;;;28.55;4.80;;;7.50;99.90;;;;;;4213988;28;20040;-64
2024/01/01 08:39:09;;;;;;;25.77;4.78;;;7.50;99.90;;;;;;4195760;28;20048;-65
2024/01/01 08:41:13;;;;;;;21.17;4.80;;;7.60;99.90;;;;;;4213991;28;20067;-63
2024/01/01 08:43:19;;;;;;;17.75;4.07;;;7.60;99.90;;;;;;4213841;28;20414;-65
2024/01/01 08:45:24;;;;;;;21.85;4.68;;;7.60;99.90;;;;;;4217195;28;20126;-64
2024/01/01 08:47:26;;;;;;;21.40;4.85;;;7.60;99.90;;;;;;4216983;28;20062;-62
2024/01/01 08:49:28;;;;;;;18.83;3.95;;;7.70;99.90;;;;;;4216165;28;20465;-63
2024/01/01 08:51:30;;;;;;;21.95;4.15;;;7.70;99.90;;;;;;4216310;28;20437;-63
2024/01/01 08:53:33;;;;;;;24.80;4.45;;;7.70;99.90;;;;;;4215902;28;20130;-63
2024/01/01 08:55:37;;;;;;;25.10;4.68;;;7.70;99.90;;;;;;4216300;28;20044;-63
2024/01/01 08:57:42;;;;;;;23.90;4.90;;;7.80;99.90;;;;;;4215876;28;20105;-62
2024/01/01 08:59:44;;;;;;;19.80;4.28;;;7.80;99.90;;;;;;4216346;28;20044;-62
2024/01/01 09:01:48;;;;;;;15.43;3.17;;;7.80;99.90;;;;;;4198733;28;20080;-62
2024/01/01 09:03:51;;;;;;;26.85;5.13;;;7.80;99.90;;;;;;4216194;28;20044;-64
2024/01/01 09:05:56;;;;;;;27.35;4.65;;;7.90;99.90;;;;;;4216774;28;20044;-67
2024/01/01 09:07:59;;;;;;;22.85;4.05;;;7.90;99.90;;;;;;4216514;28;20052;-64
2024/01/01 09:10:04;;;;;;;35.35;5.47;;;7.90;99.90;;;;;;4215856;28;20131;-64
2024/01/01 09:12:09;;;;;;;31.93;4.70;;;8.00;99.90;;;;;;4215603;28;20406;-63
2024/01/01 09:14:13;;;;;;;21.20;4.30;;;8.10;99.90;;;;;;4215713;28;20079;-63
2024/01/01 09:16:15;;;;;;;26.50;5.03;;;8.10;99.90;;;;;;4198379;28;20062;-64
2024/01/01 09:18:17;;;;;;;22.30;4.40;;;8.10;99.90;;;;;;4216056;28;20052;-64
2024/01/01 09:20:22;;;;;;;21.70;4.28;;;8.20;99.90;;;;;;4215745;28;20063;-64
2024/01/01 09:22:24;;;;;;;22.25;4.43;;;8.20;99.90;;;;;;4215533;28;20056;-63
2024/01/01 09:24:26;;;;;;;23.70;5.20;;;8.20;99.90;;;;;;4197680;28;20048;-64
2024/01/01 09:26:29;;;;;;;31.05;5.07;;;8.20;99.90;;;;;;4215002;28;20502;-65
2024/01/01 09:28:33;;;;;;;21.02;4.00;;;8.20;99.90;;;;;;4215042;28;20051;-63
2024/01/01 09:30:36;;;;;;;34.63;5.13;;;8.30;99.90;;;;;;4215581;28;20064;-63
2024/01/01 09:32:39;;;;;;;20.70;4.68;;;8.40;99.90;;;;;;4216593;28;20075;-64
2024/01/01 09:34:41;;;;;;;21.20;4.45;;;8.40;99.90;;;;;;4217565;28;20105;-65
2024/01/01 09:36:44;;;;;;;16.35;4.10;;;8.40;99.90;;;;;;4218013;28;20048;-68
2024/01/01 09:39:01;;;;;;;18.63;3.85;;;8.40;99.90;;;;;;4217190;28;20047;-65
2024/01/01 09:41:03;;;;;;;20.60;4.32;;;8.50;99.90;;;;;;4215635;28;20048;-64
2024/01/01 09:43:05;;;;;;;22.35;4.47;;;8.50;99.90;;;;;;4214820;28;20056;-64
2024/01/01 09:45:12;;;;;;;20.73;3.65;;;8.50;99.90;;;;;;4215122;28;20052;-63
2024/01/01 09:47:16;;;;;;;30.35;5.05;;;8.60;99.90;;;;;;4215156;28;20068;-63
2024/01/01 09:49:18;;;;;;;22.88;4.63;;;8.60;99.90;;;;;;4215121;28;20118;-64
2024/01/01 09:51:20;;;;;;;23.00;4.13;;;8.60;99.90;;;;;;4215027;28;20052;-64
2024/01/01 09:53:23;;;;;;;18.35;4.28;;;8.60;99.90;;;;;;4214813;28;20076;-64
2024/01/01 09:55:25;;;;;;;17.23;4.10;;;8.70;99.90;;;;;;4213867;28;20083;-64
2024/01/01 09:57:28;;;;;;;23.38;4.90;;;8.70;99.90;;;;;;4214825;28;20074;-64
2024/01/01 09:59:37;;;;;;;20.30;4.20;;;8.70;99.90;;;;;;4215068;28;20487;-64
2024/01/01 10:01:44;;;;;;;23.10;4.55;;;8.80;99.90;;;;;;4214480;28;20051;-64
2024/01/01 10:04:03;;;;;;;22.08;3.88;;;8.80;99.90;;;;;;4214640;28;20048;-63
2024/01/01 10:06:10;;;;;;;22.00;4.47;;;8.90;99.90;;;;;;4196727;28;20072;-64
2024/01/01 10:08:14;;;;;;;23.98;4.38;;;8.90;99.90;;;;;;4214593;28;20105;-63
2024/01/01 10:10:27;;;;;;;15.90;3.97;;;8.90;99.90;;;;;;4214827;28;20048;-64
2024/01/01 10:12:29;;;;;;;19.00;3.92;;;8.90;99.90;;;;;;4214579;28;20054;-64
2024/01/01 10:14:31;;;;;;;21.85;4.72;;;9.00;99.90;;;;;;4204049;28;20076;-64
2024/01/01 10:16:34;;;;;;;27.77;5.00;;;9.00;99.90;;;;;;4181124;28;20118;-63
2024/01/01 10:18:36;;;;;;;22.80;4.63;;;9.00;99.90;;;;;;4197771;28;20082;-63
2024/01/01 10:20:45;;;;;;;21.65;5.22;;;9.10;99.90;;;;;;4198027;28;20402;-63
2024/01/01 10:22:50;;;;;;;18.38;3.83;;;9.10;99.90;;;;;;4197364;28;20052;-63
2024/01/01 10:24:53;;;;;;;26.63;4.70;;;9.20;99.90;;;;;;4197797;28;20044;-64
2024/01/01 10:26:56;;;;;;;16.55;4.20;;;9.20;99.90;;;;;;4197628;28;20090;-65
2024/01/01 10:28:58;;;;;;;20.42;4.25;;;9.20;99.90;;;;;;4198371;28;20132;-64
2024/01/01 10:31:02;;;;;;;24.02;4.47;;;9.20;99.90;;;;;;4198259;28;20482;-65
2024/01/01 10:33:05;;;;;;;22.15;4.15;;;9.20;99.90;;;;;;4198212;28;20049;-64
2024/01/01 10:35:09;;;;;;;22.92;4.53;;;9.20;99.90;;;;;;4197948;28;20051;-64
2024/01/01 10:37:14;;;;;;;17.67;4.20;;;9.30;99.90;;;;;;4197284;28;20044;-63
2024/01/01 10:39:17;;;;;;;19.30;5.10;;;9.30;99.90;;;;;;4197756;28;20099;-63
2024/01/01 10:41:19;;;;;;;28.02;5.13;;;9.30;99.90;;;;;;4197550;28;20068;-63